sensor_id;sensor_type;location;lat;lon;timestamp;temperature;humidity
39347;DHT22;26262;49.836;6.632;2022-07-09T00:01:16;15.30;99.90
39347;DHT22;26262;49.836;6.632;2022-07-09T00:03:42;15.30;99.90
39347;DHT22;26262;49.836;6.632;2022-07-09T00:06:07;15.20;99.90
39347;DHT22;26262;49.836;6.632;2022-07-09T00:08:33;15.20;99.90
39347;DHT22;26262;49.836;6.632;2022-07-09T00:10:58;15.20;99.90
39347;DHT22;26262;49.836;6.632;2022-07-09T00:13:24;15.10;99.90
39347;DHT22;26262;49.836;6.632;2022-07-09T00:15:49;15.10;99.90
39347;DHT22;26262;49.836;6.632;2022-07-09T00:18:15;15.00;99.90
39347;DHT22;26262;49.836;6.632;2022-07-09T00:20:41;15.00;99.90
39347;DHT22;26262;49.836;6.632;2022-07-09T00:23:06;15.00;99.90
39347;DHT22;26262;49.836;6.632;2022-07-09T00:25:32;15.00;99.90
39347;DHT22;26262;49.836;6.632;2022-07-09T00:27:58;15.00;99.90
39347;DHT22;26262;49.836;6.632;2022-07-09T00:30:23;14.90;99.90
39347;DHT22;26262;49.836;6.632;2022-07-09T00:32:49;14.90;99.90
39347;DHT22;26262;49.836;6.632;2022-07-09T00:35:14;14.60;99.90
39347;DHT22;26262;49.836;6.632;2022-07-09T00:37:40;14.60;99.90
39347;DHT22;26262;49.836;6.632;2022-07-09T00:40:06;14.10;99.90
39347;DHT22;26262;49.836;6.632;2022-07-09T00:42:32;14.20;99.90
39347;DHT22;26262;49.836;6.632;2022-07-09T00:44:57;14.20;99.90
39347;DHT22;26262;49.836;6.632;2022-07-09T00:47:23;14.30;99.90
39347;DHT22;26262;49.836;6.632;2022-07-09T00:49:48;14.40;99.90
39347;DHT22;26262;49.836;6.632;2022-07-09T00:52:15;14.50;99.90
39347;DHT22;26262;49.836;6.632;2022-07-09T00:54:42;14.50;99.90
39347;DHT22;26262;49.836;6.632;2022-07-09T00:57:10;14.50;99.90
39347;DHT22;26262;49.836;6.632;2022-07-09T00:59:36;14.60;99.90
39347;DHT22;26262;49.836;6.632;2022-07-09T01:02:02;14.50;99.90
39347;DHT22;26262;49.836;6.632;2022-07-09T01:04:28;14.50;99.90
39347;DHT22;26262;49.836;6.632;2022-07-09T01:06:54;14.50;99.90
39347;DHT22;26262;49.836;6.632;2022-07-09T01:09:20;14.50;99.90
39347;DHT22;26262;49.836;6.632;2022-07-09T01:11:46;14.50;99.90
39347;DHT22;26262;49.836;6.632;2022-07-09T01:14:13;14.40;99.90
39347;DHT22;26262;49.836;6.632;2022-07-09T01:16:38;14.40;99.90
39347;DHT22;26262;49.836;6.632;2022-07-09T01:19:05;14.20;99.90
39347;DHT22;26262;49.836;6.632;2022-07-09T01:21:31;14.20;99.90
39347;DHT22;26262;49.836;6.632;2022-07-09T01:23:56;14.20;99.90
39347;DHT22;26262;49.836;6.632;2022-07-09T01:26:23;14.20;99.90
39347;DHT22;26262;49.836;6.632;2022-07-09T01:28:49;14.20;99.90
39347;DHT22;26262;49.836;6.632;2022-07-09T01:31:15;14.20;99.90
39347;DHT22;26262;49.836;6.632;2022-07-09T01:33:41;14.20;99.90
39347;DHT22;26262;49.836;6.632;2022-07-09T01:36:10;14.10;99.90
39347;DHT22;26262;49.836;6.632;2022-07-09T01:38:36;14.00;99.90
39347;DHT22;26262;49.836;6.632;2022-07-09T01:41:02;14.00;99.90
39347;DHT22;26262;49.836;6.632;2022-07-09T01:43:27;14.10;99.90
39347;DHT22;26262;49.836;6.632;2022-07-09T01:45:53;14.00;99.90
39347;DHT22;26262;49.836;6.632;2022-07-09T01:48:18;14.00;99.90
39347;DHT22;26262;49.836;6.632;2022-07-09T01:50:44;14.00;99.90
39347;DHT22;26262;49.836;6.632;2022-07-09T01:53:10;14.00;99.90
39347;DHT22;26262;49.836;6.632;2022-07-09T01:55:35;14.00;99.90
39347;DHT22;26262;49.836;6.632;2022-07-09T01:58:01;13.70;99.90
39347;DHT22;26262;49.836;6.632;2022-07-09T02:00:27;13.60;99.90
39347;DHT22;26262;49.836;6.632;2022-07-09T02:02:56;13.60;99.90
39347;DHT22;26262;49.836;6.632;2022-07-09T02:05:22;13.60;99.90
39347;DHT22;26262;49.836;6.632;2022-07-09T02:07:48;13.50;99.90
39347;DHT22;26262;49.836;6.632;2022-07-09T02:10:15;13.60;99.90
39347;DHT22;26262;49.836;6.632;2022-07-09T02:12:41;13.60;99.90
39347;DHT22;26262;49.836;6.632;2022-07-09T02:15:07;13.60;99.90
39347;DHT22;26262;49.836;6.632;2022-07-09T02:17:33;13.70;99.90
39347;DHT22;26262;49.836;6.632;2022-07-09T02:19:59;13.70;99.90
39347;DHT22;26262;49.836;6.632;2022-07-09T02:22:24;13.70;99.90
39347;DHT22;26262;49.836;6.632;2022-07-09T02:24:50;13.70;99.90
39347;DHT22;26262;49.836;6.632;2022-07-09T02:27:16;13.50;99.90
39347;DHT22;26262;49.836;6.632;2022-07-09T02:29:41;13.50;99.90
39347;DHT22;26262;49.836;6.632;2022-07-09T02:32:07;13.60;99.90
39347;DHT22;26262;49.836;6.632;2022-07-09T02:34:36;13.60;99.90
39347;DHT22;26262;49.836;6.632;2022-07-09T02:37:01;13.70;99.90
39347;DHT22;26262;49.836;6.632;2022-07-09T02:39:27;13.70;99.90
39347;DHT22;26262;49.836;6.632;2022-07-09T02:41:53;13.70;99.90
39347;DHT22;26262;49.836;6.632;2022-07-09T02:44:19;13.70;99.90
39347;DHT22;26262;49.836;6.632;2022-07-09T02:46:44;13.70;99.90
39347;DHT22;26262;49.836;6.632;2022-07-09T02:49:10;13.70;99.90
39347;DHT22;26262;49.836;6.632;2022-07-09T02:51:36;13.70;99.90
39347;DHT22;26262;49.836;6.632;2022-07-09T02:54:01;13.70;99.90
39347;DHT22;26262;49.836;6.632;2022-07-09T02:56:27;13.70;99.90
39347;DHT22;26262;49.836;6.632;2022-07-09T02:58:52;13.70;99.90
39347;DHT22;26262;49.836;6.632;2022-07-09T03:01:18;13.70;99.90
39347;DHT22;26262;49.836;6.632;2022-07-09T03:03:43;13.70;99.90
39347;DHT22;26262;49.836;6.632;2022-07-09T03:06:09;13.30;99.90
39347;DHT22;26262;49.836;6.632;2022-07-09T03:08:34;13.30;99.90
39347;DHT22;26262;49.836;6.632;2022-07-09T03:11:00;13.30;99.90
39347;DHT22;26262;49.836;6.632;2022-07-09T03:13:26;13.30;99.90
39347;DHT22;26262;49.836;6.632;2022-07-09T03:15:51;13.40;99.90
39347;DHT22;26262;49.836;6.632;2022-07-09T03:18:17;13.40;99.90
39347;DHT22;26262;49.836;6.632;2022-07-09T03:20:42;13.50;99.90
39347;DHT22;26262;49.836;6.632;2022-07-09T03:23:08;13.50;99.90
39347;DHT22;26262;49.836;6.632;2022-07-09T03:25:33;13.50;99.90
39347;DHT22;26262;49.836;6.632;2022-07-09T03:27:59;13.50;99.90
39347;DHT22;26262;49.836;6.632;2022-07-09T03:30:25;13.40;99.90
39347;DHT22;26262;49.836;6.632;2022-07-09T03:32:51;13.40;99.90
39347;DHT22;26262;49.836;6.632;2022-07-09T03:35:16;13.40;99.90
39347;DHT22;26262;49.836;6.632;2022-07-09T03:37:42;13.30;99.90
39347;DHT22;26262;49.836;6.632;2022-07-09T03:40:08;13.20;99.90
39347;DHT22;26262;49.836;6.632;2022-07-09T03:42:34;13.10;99.90
39347;DHT22;26262;49.836;6.632;2022-07-09T03:45:00;13.10;99.90
39347;DHT22;26262;49.836;6.632;2022-07-09T03:47:25;13.20;99.90
39347;DHT22;26262;49.836;6.632;2022-07-09T03:49:51;13.20;99.90
39347;DHT22;26262;49.836;6.632;2022-07-09T03:52:16;13.10;99.90
39347;DHT22;26262;49.836;6.632;2022-07-09T03:54:42;13.20;99.90
39347;DHT22;26262;49.836;6.632;2022-07-09T03:57:09;13.20;99.90
39347;DHT22;26262;49.836;6.632;2022-07-09T03:59:34;13.20;99.90
39347;DHT22;26262;49.836;6.632;2022-07-09T04:02:00;13.20;99.90
39347;DHT22;26262;49.836;6.632;2022-07-09T04:04:26;13.20;99.90
39347;DHT22;26262;49.836;6.632;2022-07-09T04:06:51;13.10;99.90
39347;DHT22;26262;49.836;6.632;2022-07-09T04:09:17;13.10;99.90
39347;DHT22;26262;49.836;6.632;2022-07-09T04:11:42;13.10;99.90
39347;DHT22;26262;49.836;6.632;2022-07-09T04:14:08;13.10;99.90
39347;DHT22;26262;49.836;6.632;2022-07-09T04:16:33;13.20;99.90
39347;DHT22;26262;49.836;6.632;2022-07-09T04:18:59;13.30;99.90
39347;DHT22;26262;49.836;6.632;2022-07-09T04:21:24;13.30;99.90
39347;DHT22;26262;49.836;6.632;2022-07-09T04:23:50;13.40;99.90
39347;DHT22;26262;49.836;6.632;2022-07-09T04:26:16;13.30;99.90
39347;DHT22;26262;49.836;6.632;2022-07-09T04:28:44;13.20;99.90
39347;DHT22;26262;49.836;6.632;2022-07-09T04:31:10;13.30;99.90
39347;DHT22;26262;49.836;6.632;2022-07-09T04:33:35;13.30;99.90
39347;DHT22;26262;49.836;6.632;2022-07-09T04:36:01;13.40;99.90
39347;DHT22;26262;49.836;6.632;2022-07-09T04:38:27;13.40;99.90
39347;DHT22;26262;49.836;6.632;2022-07-09T04:40:54;13.40;99.90
39347;DHT22;26262;49.836;6.632;2022-07-09T04:43:20;13.50;99.90
39347;DHT22;26262;49.836;6.632;2022-07-09T04:45:46;13.50;99.90
39347;DHT22;26262;49.836;6.632;2022-07-09T04:48:12;13.60;99.90
39347;DHT22;26262;49.836;6.632;2022-07-09T04:50:37;13.70;99.90
39347;DHT22;26262;49.836;6.632;2022-07-09T04:53:03;13.70;99.90
39347;DHT22;26262;49.836;6.632;2022-07-09T04:55:28;13.80;99.90
39347;DHT22;26262;49.836;6.632;2022-07-09T04:57:54;13.70;99.90
39347;DHT22;26262;49.836;6.632;2022-07-09T05:00:19;13.80;99.90
39347;DHT22;26262;49.836;6.632;2022-07-09T05:02:45;13.80;99.90
39347;DHT22;26262;49.836;6.632;2022-07-09T05:05:11;13.80;99.90
39347;DHT22;26262;49.836;6.632;2022-07-09T05:07:37;13.90;99.90
39347;DHT22;26262;49.836;6.632;2022-07-09T05:10:03;13.90;99.90
39347;DHT22;26262;49.836;6.632;2022-07-09T05:12:30;13.90;99.90
39347;DHT22;26262;49.836;6.632;2022-07-09T05:14:56;14.00;99.90
39347;DHT22;26262;49.836;6.632;2022-07-09T05:17:22;14.10;99.90
39347;DHT22;26262;49.836;6.632;2022-07-09T05:19:48;14.10;99.90
39347;DHT22;26262;49.836;6.632;2022-07-09T05:22:13;14.10;99.90
39347;DHT22;26262;49.836;6.632;2022-07-09T05:24:39;14.20;99.90
39347;DHT22;26262;49.836;6.632;2022-07-09T05:27:06;14.30;99.90
39347;DHT22;26262;49.836;6.632;2022-07-09T05:29:31;14.40;99.90
39347;DHT22;26262;49.836;6.632;2022-07-09T05:31:58;14.40;99.90
39347;DHT22;26262;49.836;6.632;2022-07-09T05:34:24;14.50;99.90
39347;DHT22;26262;49.836;6.632;2022-07-09T05:36:50;14.60;99.90
39347;DHT22;26262;49.836;6.632;2022-07-09T05:39:17;14.70;99.90
39347;DHT22;26262;49.836;6.632;2022-07-09T05:41:43;14.70;99.90
39347;DHT22;26262;49.836;6.632;2022-07-09T05:44:09;14.70;99.90
39347;DHT22;26262;49.836;6.632;2022-07-09T05:46:34;14.80;99.90
39347;DHT22;26262;49.836;6.632;2022-07-09T05:49:00;14.90;99.90
39347;DHT22;26262;49.836;6.632;2022-07-09T05:51:25;15.00;99.90
39347;DHT22;26262;49.836;6.632;2022-07-09T05:53:51;15.10;99.90
39347;DHT22;26262;49.836;6.632;2022-07-09T05:56:17;15.10;99.90
39347;DHT22;26262;49.836;6.632;2022-07-09T05:58:42;15.20;99.90
39347;DHT22;26262;49.836;6.632;2022-07-09T06:01:08;15.30;99.90
39347;DHT22;26262;49.836;6.632;2022-07-09T06:03:33;15.40;99.90
39347;DHT22;26262;49.836;6.632;2022-07-09T06:05:59;15.50;99.90
39347;DHT22;26262;49.836;6.632;2022-07-09T06:08:24;15.40;99.90
39347;DHT22;26262;49.836;6.632;2022-07-09T06:10:51;15.40;99.90
39347;DHT22;26262;49.836;6.632;2022-07-09T06:13:17;15.60;99.90
39347;DHT22;26262;49.836;6.632;2022-07-09T06:15:43;15.70;99.90
39347;DHT22;26262;49.836;6.632;2022-07-09T06:18:09;15.90;99.90
39347;DHT22;26262;49.836;6.632;2022-07-09T06:20:34;16.00;99.90
39347;DHT22;26262;49.836;6.632;2022-07-09T06:23:00;16.10;99.90
39347;DHT22;26262;49.836;6.632;2022-07-09T06:25:25;16.20;99.90
39347;DHT22;26262;49.836;6.632;2022-07-09T06:27:51;16.30;99.90
39347;DHT22;26262;49.836;6.632;2022-07-09T06:30:17;16.40;99.90
39347;DHT22;26262;49.836;6.632;2022-07-09T06:32:42;16.50;99.90
39347;DHT22;26262;49.836;6.632;2022-07-09T06:35:08;16.50;99.90
39347;DHT22;26262;49.836;6.632;2022-07-09T06:37:34;16.60;99.90
39347;DHT22;26262;49.836;6.632;2022-07-09T06:39:59;16.70;99.90
39347;DHT22;26262;49.836;6.632;2022-07-09T06:42:25;16.80;99.90
39347;DHT22;26262;49.836;6.632;2022-07-09T06:44:51;16.90;99.90
39347;DHT22;26262;49.836;6.632;2022-07-09T06:47:17;17.00;99.90
39347;DHT22;26262;49.836;6.632;2022-07-09T06:49:43;17.00;99.90
39347;DHT22;26262;49.836;6.632;2022-07-09T06:52:09;17.10;99.90
39347;DHT22;26262;49.836;6.632;2022-07-09T06:54:35;17.20;99.90
39347;DHT22;26262;49.836;6.632;2022-07-09T06:57:04;17.30;99.90
39347;DHT22;26262;49.836;6.632;2022-07-09T06:59:30;17.50;99.90
39347;DHT22;26262;49.836;6.632;2022-07-09T07:01:55;17.50;99.90
39347;DHT22;26262;49.836;6.632;2022-07-09T07:04:21;17.70;99.90
39347;DHT22;26262;49.836;6.632;2022-07-09T07:06:47;17.80;99.90
39347;DHT22;26262;49.836;6.632;2022-07-09T07:09:14;17.90;99.90
39347;DHT22;26262;49.836;6.632;2022-07-09T07:11:44;18.10;99.90
39347;DHT22;26262;49.836;6.632;2022-07-09T07:14:10;18.20;99.90
39347;DHT22;26262;49.836;6.632;2022-07-09T07:16:35;18.30;99.90
39347;DHT22;26262;49.836;6.632;2022-07-09T07:19:01;18.30;99.90
39347;DHT22;26262;49.836;6.632;2022-07-09T07:21:26;18.40;99.90
39347;DHT22;26262;49.836;6.632;2022-07-09T07:23:52;18.50;99.90
39347;DHT22;26262;49.836;6.632;2022-07-09T07:26:17;18.70;99.90
39347;DHT22;26262;49.836;6.632;2022-07-09T07:28:43;18.80;99.90
39347;DHT22;26262;49.836;6.632;2022-07-09T07:31:08;19.00;99.90
39347;DHT22;26262;49.836;6.632;2022-07-09T07:33:34;19.20;99.90
39347;DHT22;26262;49.836;6.632;2022-07-09T07:35:59;19.40;99.90
39347;DHT22;26262;49.836;6.632;2022-07-09T07:38:25;19.50;99.90
39347;DHT22;26262;49.836;6.632;2022-07-09T07:40:53;19.60;99.90
39347;DHT22;26262;49.836;6.632;2022-07-09T07:43:18;19.80;99.90
39347;DHT22;26262;49.836;6.632;2022-07-09T07:45:44;19.90;99.90
39347;DHT22;26262;49.836;6.632;2022-07-09T07:48:09;20.10;99.90
39347;DHT22;26262;49.836;6.632;2022-07-09T07:50:35;20.30;99.90
39347;DHT22;26262;49.836;6.632;2022-07-09T07:53:06;20.40;99.90
39347;DHT22;26262;49.836;6.632;2022-07-09T07:55:32;20.60;99.90
39347;DHT22;26262;49.836;6.632;2022-07-09T07:57:58;20.80;99.90
39347;DHT22;26262;49.836;6.632;2022-07-09T08:00:24;20.90;99.90
39347;DHT22;26262;49.836;6.632;2022-07-09T08:02:49;21.10;99.90
39347;DHT22;26262;49.836;6.632;2022-07-09T08:05:15;21.10;99.90
39347;DHT22;26262;49.836;6.632;2022-07-09T08:07:41;21.20;99.90
39347;DHT22;26262;49.836;6.632;2022-07-09T08:10:07;21.30;99.90
39347;DHT22;26262;49.836;6.632;2022-07-09T08:12:33;21.40;99.90
39347;DHT22;26262;49.836;6.632;2022-07-09T08:14:58;21.50;99.90
39347;DHT22;26262;49.836;6.632;2022-07-09T08:17:24;21.40;99.90
39347;DHT22;26262;49.836;6.632;2022-07-09T08:19:49;21.50;99.90
39347;DHT22;26262;49.836;6.632;2022-07-09T08:22:15;21.50;99.90
39347;DHT22;26262;49.836;6.632;2022-07-09T08:24:41;21.60;99.90
39347;DHT22;26262;49.836;6.632;2022-07-09T08:27:06;21.80;99.90
39347;DHT22;26262;49.836;6.632;2022-07-09T08:29:32;22.00;99.90
39347;DHT22;26262;49.836;6.632;2022-07-09T08:31:58;22.10;99.80
39347;DHT22;26262;49.836;6.632;2022-07-09T08:34:23;22.20;99.80
39347;DHT22;26262;49.836;6.632;2022-07-09T08:36:49;22.40;99.20
39347;DHT22;26262;49.836;6.632;2022-07-09T08:39:14;22.40;98.90
39347;DHT22;26262;49.836;6.632;2022-07-09T08:41:40;22.50;98.80
39347;DHT22;26262;49.836;6.632;2022-07-09T08:44:11;22.70;99.40
39347;DHT22;26262;49.836;6.632;2022-07-09T08:46:36;22.90;99.00
39347;DHT22;26262;49.836;6.632;2022-07-09T08:49:03;23.00;98.50
39347;DHT22;26262;49.836;6.632;2022-07-09T08:51:30;23.10;97.90
39347;DHT22;26262;49.836;6.632;2022-07-09T08:53:55;23.10;97.70
39347;DHT22;26262;49.836;6.632;2022-07-09T08:56:21;23.10;97.60
39347;DHT22;26262;49.836;6.632;2022-07-09T08:58:46;23.00;97.70
39347;DHT22;26262;49.836;6.632;2022-07-09T09:01:14;23.10;97.80
39347;DHT22;26262;49.836;6.632;2022-07-09T09:03:41;22.90;96.80
39347;DHT22;26262;49.836;6.632;2022-07-09T09:06:08;23.00;97.30
39347;DHT22;26262;49.836;6.632;2022-07-09T09:08:35;22.90;97.10
39347;DHT22;26262;49.836;6.632;2022-07-09T09:11:06;23.20;97.80
39347;DHT22;26262;49.836;6.632;2022-07-09T09:13:46;23.20;97.50
39347;DHT22;26262;49.836;6.632;2022-07-09T09:16:13;23.30;97.90
39347;DHT22;26262;49.836;6.632;2022-07-09T09:18:43;22.80;96.50
39347;DHT22;26262;49.836;6.632;2022-07-09T09:21:10;23.10;97.70
39347;DHT22;26262;49.836;6.632;2022-07-09T09:23:49;23.30;96.80
39347;DHT22;26262;49.836;6.632;2022-07-09T09:26:21;23.40;97.10
39347;DHT22;26262;49.836;6.632;2022-07-09T09:28:53;23.70;96.90
39347;DHT22;26262;49.836;6.632;2022-07-09T09:31:27;24.00;95.50
39347;DHT22;26262;49.836;6.632;2022-07-09T09:33:55;24.10;95.40
39347;DHT22;26262;49.836;6.632;2022-07-09T09:36:38;24.40;95.80
39347;DHT22;26262;49.836;6.632;2022-07-09T09:41:37;24.20;94.10
39347;DHT22;26262;49.836;6.632;2022-07-09T09:44:08;24.40;94.70
39347;DHT22;26262;49.836;6.632;2022-07-09T09:46:36;24.70;94.90
39347;DHT22;26262;49.836;6.632;2022-07-09T09:49:03;24.70;94.20
39347;DHT22;26262;49.836;6.632;2022-07-09T09:51:32;24.70;93.30
39347;DHT22;26262;49.836;6.632;2022-07-09T09:54:00;24.70;93.70
39347;DHT22;26262;49.836;6.632;2022-07-09T09:56:27;24.50;93.50
39347;DHT22;26262;49.836;6.632;2022-07-09T09:58:54;24.50;94.20
39347;DHT22;26262;49.836;6.632;2022-07-09T10:01:20;24.40;93.80
39347;DHT22;26262;49.836;6.632;2022-07-09T10:03:47;24.30;93.90
39347;DHT22;26262;49.836;6.632;2022-07-09T10:06:12;24.20;94.10
39347;DHT22;26262;49.836;6.632;2022-07-09T10:08:38;24.50;94.00
39347;DHT22;26262;49.836;6.632;2022-07-09T10:11:04;24.70;92.90
39347;DHT22;26262;49.836;6.632;2022-07-09T10:13:29;25.10;92.70
39347;DHT22;26262;49.836;6.632;2022-07-09T10:15:55;25.40;92.30
39347;DHT22;26262;49.836;6.632;2022-07-09T10:18:21;25.80;91.30
39347;DHT22;26262;49.836;6.632;2022-07-09T10:20:46;25.80;91.40
39347;DHT22;26262;49.836;6.632;2022-07-09T10:23:24;26.00;90.60
39347;DHT22;26262;49.836;6.632;2022-07-09T10:25:51;26.10;90.00
39347;DHT22;26262;49.836;6.632;2022-07-09T10:28:22;26.00;90.40
39347;DHT22;26262;49.836;6.632;2022-07-09T10:30:48;26.00;91.50
39347;DHT22;26262;49.836;6.632;2022-07-09T10:35:49;26.40;90.20
39347;DHT22;26262;49.836;6.632;2022-07-09T10:38:16;26.80;89.40
39347;DHT22;26262;49.836;6.632;2022-07-09T10:40:44;27.00;87.20
39347;DHT22;26262;49.836;6.632;2022-07-09T10:43:10;27.40;86.50
39347;DHT22;26262;49.836;6.632;2022-07-09T10:45:42;27.70;82.10
39347;DHT22;26262;49.836;6.632;2022-07-09T10:48:10;27.90;82.00
39347;DHT22;26262;49.836;6.632;2022-07-09T10:50:44;28.00;81.80
39347;DHT22;26262;49.836;6.632;2022-07-09T10:53:11;27.70;80.70
39347;DHT22;26262;49.836;6.632;2022-07-09T10:55:40;27.30;81.80
39347;DHT22;26262;49.836;6.632;2022-07-09T10:58:16;27.40;83.00
39347;DHT22;26262;49.836;6.632;2022-07-09T11:00:42;27.40;82.60
39347;DHT22;26262;49.836;6.632;2022-07-09T11:03:07;27.20;83.20
39347;DHT22;26262;49.836;6.632;2022-07-09T11:05:43;27.30;83.70
39347;DHT22;26262;49.836;6.632;2022-07-09T11:08:09;27.70;83.60
39347;DHT22;26262;49.836;6.632;2022-07-09T11:10:37;28.00;82.50
39347;DHT22;26262;49.836;6.632;2022-07-09T11:13:04;28.40;79.80
39347;DHT22;26262;49.836;6.632;2022-07-09T11:15:32;28.80;80.70
39347;DHT22;26262;49.836;6.632;2022-07-09T11:20:25;29.30;77.50
39347;DHT22;26262;49.836;6.632;2022-07-09T11:22:51;29.50;78.20
39347;DHT22;26262;49.836;6.632;2022-07-09T11:25:17;29.90;76.50
39347;DHT22;26262;49.836;6.632;2022-07-09T11:27:43;29.70;77.70
39347;DHT22;26262;49.836;6.632;2022-07-09T11:30:13;28.90;76.50
39347;DHT22;26262;49.836;6.632;2022-07-09T11:32:43;28.50;77.40
39347;DHT22;26262;49.836;6.632;2022-07-09T11:35:09;28.50;77.80
39347;DHT22;26262;49.836;6.632;2022-07-09T11:37:35;28.60;76.30
39347;DHT22;26262;49.836;6.632;2022-07-09T11:40:01;28.60;76.40
39347;DHT22;26262;49.836;6.632;2022-07-09T11:42:26;28.60;76.70
39347;DHT22;26262;49.836;6.632;2022-07-09T11:45:01;28.30;77.60
39347;DHT22;26262;49.836;6.632;2022-07-09T11:47:38;28.50;77.50
39347;DHT22;26262;49.836;6.632;2022-07-09T11:50:15;28.50;78.50
39347;DHT22;26262;49.836;6.632;2022-07-09T11:52:46;28.30;75.60
39347;DHT22;26262;49.836;6.632;2022-07-09T11:55:14;28.50;77.70
39347;DHT22;26262;49.836;6.632;2022-07-09T11:57:54;28.70;74.30
39347;DHT22;26262;49.836;6.632;2022-07-09T12:00:24;28.40;75.00
39347;DHT22;26262;49.836;6.632;2022-07-09T12:02:50;28.10;75.20
39347;DHT22;26262;49.836;6.632;2022-07-09T12:05:27;27.70;75.90
39347;DHT22;26262;49.836;6.632;2022-07-09T12:07:57;27.30;78.10
39347;DHT22;26262;49.836;6.632;2022-07-09T12:10:29;27.10;74.80
39347;DHT22;26262;49.836;6.632;2022-07-09T12:12:54;27.40;76.30
39347;DHT22;26262;49.836;6.632;2022-07-09T12:15:20;27.70;76.90
39347;DHT22;26262;49.836;6.632;2022-07-09T12:17:51;28.10;74.70
39347;DHT22;26262;49.836;6.632;2022-07-09T12:20:18;28.60;74.90
39347;DHT22;26262;49.836;6.632;2022-07-09T12:22:43;29.00;72.90
39347;DHT22;26262;49.836;6.632;2022-07-09T12:25:09;29.00;71.00
39347;DHT22;26262;49.836;6.632;2022-07-09T12:27:35;29.60;72.10
39347;DHT22;26262;49.836;6.632;2022-07-09T12:30:00;29.40;69.70
39347;DHT22;26262;49.836;6.632;2022-07-09T12:32:26;29.10;71.70
39347;DHT22;26262;49.836;6.632;2022-07-09T12:34:51;29.00;71.60
39347;DHT22;26262;49.836;6.632;2022-07-09T12:37:17;29.40;70.30
39347;DHT22;26262;49.836;6.632;2022-07-09T12:39:42;29.50;70.20
39347;DHT22;26262;49.836;6.632;2022-07-09T12:42:08;29.30;71.00
39347;DHT22;26262;49.836;6.632;2022-07-09T12:44:33;29.40;70.10
39347;DHT22;26262;49.836;6.632;2022-07-09T12:46:59;29.60;69.30
39347;DHT22;26262;49.836;6.632;2022-07-09T12:49:24;29.80;69.70
39347;DHT22;26262;49.836;6.632;2022-07-09T12:51:50;30.20;68.70
39347;DHT22;26262;49.836;6.632;2022-07-09T12:54:15;30.50;67.90
39347;DHT22;26262;49.836;6.632;2022-07-09T12:56:41;30.70;66.80
39347;DHT22;26262;49.836;6.632;2022-07-09T12:59:06;30.90;66.40
39347;DHT22;26262;49.836;6.632;2022-07-09T13:01:32;30.80;67.10
39347;DHT22;26262;49.836;6.632;2022-07-09T13:03:58;31.00;67.80
39347;DHT22;26262;49.836;6.632;2022-07-09T13:06:23;31.30;65.40
39347;DHT22;26262;49.836;6.632;2022-07-09T13:09:02;31.30;65.30
39347;DHT22;26262;49.836;6.632;2022-07-09T13:11:29;31.00;65.20
39347;DHT22;26262;49.836;6.632;2022-07-09T13:13:54;30.20;65.70
39347;DHT22;26262;49.836;6.632;2022-07-09T13:16:20;29.60;67.30
39347;DHT22;26262;49.836;6.632;2022-07-09T13:18:46;29.00;68.10
39347;DHT22;26262;49.836;6.632;2022-07-09T13:21:11;28.40;69.40
39347;DHT22;26262;49.836;6.632;2022-07-09T13:23:37;28.70;71.30
39347;DHT22;26262;49.836;6.632;2022-07-09T13:26:03;29.10;69.40
39347;DHT22;26262;49.836;6.632;2022-07-09T13:28:28;29.60;69.10
39347;DHT22;26262;49.836;6.632;2022-07-09T13:30:54;29.60;68.90
39347;DHT22;26262;49.836;6.632;2022-07-09T13:33:20;29.70;67.20
39347;DHT22;26262;49.836;6.632;2022-07-09T13:35:45;29.60;67.90
39347;DHT22;26262;49.836;6.632;2022-07-09T13:38:11;29.40;67.90
39347;DHT22;26262;49.836;6.632;2022-07-09T13:40:36;29.20;69.00
39347;DHT22;26262;49.836;6.632;2022-07-09T13:43:02;28.90;69.20
39347;DHT22;26262;49.836;6.632;2022-07-09T13:45:28;28.80;68.90
39347;DHT22;26262;49.836;6.632;2022-07-09T13:47:54;28.50;69.90
39347;DHT22;26262;49.836;6.632;2022-07-09T13:50:20;28.40;70.40
39347;DHT22;26262;49.836;6.632;2022-07-09T13:52:45;28.60;71.50
39347;DHT22;26262;49.836;6.632;2022-07-09T13:55:11;28.70;70.80
39347;DHT22;26262;49.836;6.632;2022-07-09T13:57:36;28.80;69.90
39347;DHT22;26262;49.836;6.632;2022-07-09T14:00:04;28.60;69.40
39347;DHT22;26262;49.836;6.632;2022-07-09T14:02:29;28.60;71.10
39347;DHT22;26262;49.836;6.632;2022-07-09T14:04:57;28.30;71.50
39347;DHT22;26262;49.836;6.632;2022-07-09T14:07:23;28.20;71.10
39347;DHT22;26262;49.836;6.632;2022-07-09T14:09:49;28.40;70.50
39347;DHT22;26262;49.836;6.632;2022-07-09T14:12:14;28.60;71.60
39347;DHT22;26262;49.836;6.632;2022-07-09T14:14:41;29.00;70.90
39347;DHT22;26262;49.836;6.632;2022-07-09T14:17:07;29.50;69.50
39347;DHT22;26262;49.836;6.632;2022-07-09T14:19:32;29.90;69.90
39347;DHT22;26262;49.836;6.632;2022-07-09T14:21:58;29.40;70.20
39347;DHT22;26262;49.836;6.632;2022-07-09T14:24:24;29.10;69.80
39347;DHT22;26262;49.836;6.632;2022-07-09T14:26:49;28.40;69.50
39347;DHT22;26262;49.836;6.632;2022-07-09T14:29:15;28.10;71.00
39347;DHT22;26262;49.836;6.632;2022-07-09T14:31:40;27.50;71.40
39347;DHT22;26262;49.836;6.632;2022-07-09T14:34:05;27.80;73.70
39347;DHT22;26262;49.836;6.632;2022-07-09T14:36:31;28.20;73.20
39347;DHT22;26262;49.836;6.632;2022-07-09T14:38:57;28.50;73.00
39347;DHT22;26262;49.836;6.632;2022-07-09T14:41:23;28.70;73.20
39347;DHT22;26262;49.836;6.632;2022-07-09T14:43:48;28.90;72.70
39347;DHT22;26262;49.836;6.632;2022-07-09T14:46:14;29.30;70.50
39347;DHT22;26262;49.836;6.632;2022-07-09T14:48:39;29.30;71.10
39347;DHT22;26262;49.836;6.632;2022-07-09T14:51:08;29.40;71.10
39347;DHT22;26262;49.836;6.632;2022-07-09T14:53:34;29.80;70.50
39347;DHT22;26262;49.836;6.632;2022-07-09T14:55:59;29.80;69.60
39347;DHT22;26262;49.836;6.632;2022-07-09T14:58:26;29.70;69.50
39347;DHT22;26262;49.836;6.632;2022-07-09T15:00:52;29.90;69.40
39347;DHT22;26262;49.836;6.632;2022-07-09T15:03:17;29.90;68.40
39347;DHT22;26262;49.836;6.632;2022-07-09T15:05:43;29.80;68.10
39347;DHT22;26262;49.836;6.632;2022-07-09T15:08:09;29.30;68.00
39347;DHT22;26262;49.836;6.632;2022-07-09T15:10:34;29.00;70.40
39347;DHT22;26262;49.836;6.632;2022-07-09T15:13:00;29.10;70.00
39347;DHT22;26262;49.836;6.632;2022-07-09T15:15:26;29.20;70.50
39347;DHT22;26262;49.836;6.632;2022-07-09T15:17:51;29.00;69.90
39347;DHT22;26262;49.836;6.632;2022-07-09T15:20:17;29.00;69.30
39347;DHT22;26262;49.836;6.632;2022-07-09T15:22:43;28.90;69.80
39347;DHT22;26262;49.836;6.632;2022-07-09T15:25:08;28.00;70.50
39347;DHT22;26262;49.836;6.632;2022-07-09T15:27:36;28.20;71.00
39347;DHT22;26262;49.836;6.632;2022-07-09T15:30:03;28.40;73.20
39347;DHT22;26262;49.836;6.632;2022-07-09T15:32:29;28.40;72.00